createdAt,value
2018-07-23T00:02:24.293Z,19.02
2018-07-23T00:04:53.285Z,19.00
2018-07-23T00:07:22.615Z,19.02
2018-07-23T00:09:51.530Z,19.08
2018-07-23T00:12:20.764Z,19.14
2018-07-23T00:14:49.887Z,19.10
2018-07-23T00:17:18.829Z,19.02
2018-07-23T00:19:47.771Z,18.90
2018-07-23T00:22:17.738Z,18.77
2018-07-23T00:24:46.784Z,18.76
2018-07-23T00:27:18.359Z,18.73
2018-07-23T00:29:47.998Z,18.70
2018-07-23T00:32:17.058Z,18.62
2018-07-23T00:34:46.248Z,18.65
2018-07-23T00:37:15.287Z,18.75
2018-07-23T00:39:44.930Z,18.80
2018-07-23T00:42:13.800Z,18.85
2018-07-23T00:44:42.611Z,18.89
2018-07-23T00:47:12.197Z,18.90
2018-07-23T00:49:41.178Z,18.89
2018-07-23T00:52:10.858Z,18.88
2018-07-23T00:54:40.014Z,18.85
2018-07-23T00:57:09.111Z,18.82
2018-07-23T00:59:38.032Z,18.82
2018-07-23T01:02:06.623Z,18.81
2018-07-23T01:04:35.326Z,18.83
2018-07-23T01:07:04.742Z,18.83
2018-07-23T01:09:33.475Z,18.79
2018-07-23T01:12:02.000Z,18.77
2018-07-23T01:14:30.567Z,18.76
2018-07-23T01:16:59.176Z,18.70
2018-07-23T01:19:28.022Z,18.65
2018-07-23T01:21:56.754Z,18.65
2018-07-23T01:24:25.349Z,18.71
2018-07-23T01:26:54.016Z,18.76
2018-07-23T01:29:23.035Z,18.83
2018-07-23T01:31:51.701Z,18.82
2018-07-23T01:34:20.390Z,18.85
2018-07-23T01:36:48.906Z,18.87
2018-07-23T01:39:17.472Z,18.89
2018-07-23T01:41:46.708Z,18.95
2018-07-23T01:44:15.518Z,18.96
2018-07-23T01:46:44.154Z,18.98
2018-07-23T01:49:12.735Z,18.99
2018-07-23T01:51:41.615Z,19.01
2018-07-23T01:54:11.339Z,19.01
2018-07-23T01:56:39.985Z,19.00
2018-07-23T01:59:08.738Z,18.98
2018-07-23T02:01:37.481Z,18.97
2018-07-23T02:04:06.345Z,18.93
2018-07-23T02:06:34.966Z,18.94
2018-07-23T02:09:03.724Z,18.92
2018-07-23T02:11:32.416Z,18.93
2018-07-23T02:14:01.122Z,18.89
2018-07-23T02:16:30.571Z,18.87
2018-07-23T02:18:59.151Z,18.78
2018-07-23T02:21:27.717Z,18.68
2018-07-23T02:23:56.686Z,18.58
2018-07-23T02:26:26.795Z,18.47
2018-07-23T02:28:55.599Z,18.42
2018-07-23T02:31:25.294Z,18.34
2018-07-23T02:33:54.015Z,18.26
2018-07-23T02:36:22.709Z,18.18
2018-07-23T02:38:51.461Z,18.09
2018-07-23T02:41:20.037Z,18.11
2018-07-23T02:43:49.264Z,18.13
2018-07-23T02:46:18.391Z,18.16
2018-07-23T02:48:47.104Z,18.12
2018-07-23T02:51:15.809Z,18.08
2018-07-23T02:53:44.441Z,18.06
2018-07-23T02:56:13.035Z,18.02
2018-07-23T02:58:41.604Z,17.95
2018-07-23T03:01:10.295Z,17.84
2018-07-23T03:03:38.958Z,17.83
2018-07-23T03:06:07.694Z,17.78
2018-07-23T03:08:36.353Z,17.65
2018-07-23T03:11:04.939Z,17.57
2018-07-23T03:13:33.632Z,17.50
2018-07-23T03:16:02.325Z,17.44
2018-07-23T03:18:31.023Z,17.48
2018-07-23T03:20:59.575Z,17.44
2018-07-23T03:23:28.143Z,17.38
2018-07-23T03:25:56.698Z,17.34
2018-07-23T03:28:25.231Z,17.32
2018-07-23T03:30:54.059Z,17.32
2018-07-23T03:33:22.788Z,17.30
2018-07-23T03:35:51.552Z,17.21
2018-07-23T03:38:20.228Z,17.17
2018-07-23T03:40:48.962Z,17.09
2018-07-23T03:43:17.584Z,17.01
2018-07-23T03:45:47.587Z,17.01
2018-07-23T03:48:16.308Z,17.06
2018-07-23T03:50:45.186Z,17.06
2018-07-23T03:53:14.002Z,17.04
2018-07-23T03:55:42.773Z,17.00
2018-07-23T03:58:12.600Z,17.03
2018-07-23T04:00:41.334Z,17.04
2018-07-23T04:03:10.122Z,17.04
2018-07-23T04:05:38.859Z,17.09
2018-07-23T04:08:08.541Z,17.10
2018-07-23T04:10:37.322Z,17.14
2018-07-23T04:13:05.936Z,17.17
2018-07-23T04:15:34.714Z,17.15
2018-07-23T04:18:04.864Z,17.08
2018-07-23T04:20:35.227Z,17.15
2018-07-23T04:23:04.891Z,17.13
2018-07-23T04:25:33.565Z,17.12
2018-07-23T04:28:02.489Z,17.17
2018-07-23T04:30:31.109Z,17.20
2018-07-23T04:32:59.646Z,17.19
2018-07-23T04:35:28.336Z,17.20
2018-07-23T04:37:57.057Z,17.16
2018-07-23T04:40:25.814Z,17.15
2018-07-23T04:42:54.563Z,17.20
2018-07-23T04:45:23.317Z,17.23
2018-07-23T04:47:51.995Z,17.24
2018-07-23T04:50:20.861Z,17.29
2018-07-23T04:52:49.463Z,17.32
2018-07-23T04:55:18.274Z,17.33
2018-07-23T04:57:46.988Z,17.34
2018-07-23T05:00:15.556Z,17.37
2018-07-23T05:02:44.217Z,17.39
2018-07-23T05:05:12.904Z,17.41
2018-07-23T05:07:41.628Z,17.45
2018-07-23T05:10:10.412Z,17.47
2018-07-23T05:12:40.144Z,17.53
2018-07-23T05:15:08.983Z,17.56
2018-07-23T05:17:37.541Z,17.61
2018-07-23T05:20:06.303Z,17.70
2018-07-23T05:22:35.087Z,17.71
2018-07-23T05:25:03.675Z,17.78
2018-07-23T05:27:32.350Z,17.86
2018-07-23T05:30:01.095Z,17.85
2018-07-23T05:32:29.695Z,17.90
2018-07-23T05:34:58.381Z,17.96
2018-07-23T05:37:26.989Z,18.03
2018-07-23T05:39:55.734Z,18.14
2018-07-23T05:42:24.480Z,18.19
2018-07-23T05:44:53.123Z,18.28
2018-07-23T05:47:21.851Z,18.33
2018-07-23T05:49:50.655Z,18.37
2018-07-23T05:52:19.239Z,18.48
2018-07-23T05:54:47.862Z,18.57
2018-07-23T05:57:16.473Z,18.72
2018-07-23T05:59:45.126Z,18.80
2018-07-23T06:02:13.809Z,18.81
2018-07-23T06:04:42.495Z,18.87
2018-07-23T06:07:11.237Z,18.99
2018-07-23T06:09:39.945Z,19.14
2018-07-23T06:12:09.094Z,19.25
2018-07-23T06:14:37.794Z,19.31
2018-07-23T06:17:06.830Z,19.39
2018-07-23T06:19:35.650Z,19.53
2018-07-23T06:22:04.335Z,19.67
2018-07-23T06:24:33.105Z,19.78
2018-07-23T06:27:01.754Z,19.91
2018-07-23T06:29:30.495Z,20.03
2018-07-23T06:31:59.185Z,20.13
2018-07-23T06:34:27.935Z,20.22
2018-07-23T06:36:56.692Z,20.28
2018-07-23T06:39:25.405Z,20.36
2018-07-23T06:41:54.040Z,20.46
2018-07-23T06:44:22.655Z,20.51
2018-07-23T06:46:51.319Z,20.56
2018-07-23T06:49:19.966Z,20.61
2018-07-23T06:51:48.714Z,20.75
2018-07-23T06:54:20.767Z,20.82
2018-07-23T06:56:49.399Z,20.87
2018-07-23T06:59:17.974Z,20.95
2018-07-23T07:01:46.566Z,21.02
2018-07-23T07:04:15.222Z,21.09
2018-07-23T07:06:43.800Z,21.10
2018-07-23T07:09:12.383Z,21.14
2018-07-23T07:11:40.984Z,21.07
2018-07-23T07:14:26.367Z,21.01
2018-07-23T07:17:10.747Z,21.08
2018-07-23T07:19:56.620Z,21.19
2018-07-23T07:22:35.073Z,21.29
2018-07-23T07:25:13.227Z,21.29
2018-07-23T07:27:53.721Z,21.42
2018-07-23T07:30:36.874Z,21.53
2018-07-23T07:33:17.151Z,21.60
2018-07-23T07:36:01.007Z,21.66
2018-07-23T07:38:44.024Z,21.83
2018-07-23T07:41:26.864Z,21.99
2018-07-23T07:44:03.970Z,22.07
2018-07-23T07:46:41.903Z,22.02
2018-07-23T07:49:10.663Z,22.01
2018-07-23T07:51:39.501Z,22.02
2018-07-23T07:54:13.888Z,22.20
2018-07-23T07:56:42.600Z,22.31
2018-07-23T07:59:11.411Z,22.35
2018-07-23T08:01:40.168Z,22.40
2018-07-23T08:04:20.170Z,22.32
2018-07-23T08:06:49.801Z,22.36
2018-07-23T08:09:18.471Z,22.51
2018-07-23T08:11:47.204Z,22.52
2018-07-23T08:14:19.876Z,22.45
2018-07-23T08:16:48.588Z,22.45
2018-07-23T08:19:17.563Z,22.50
2018-07-23T08:21:46.224Z,22.57
2018-07-23T08:24:22.650Z,22.56
2018-07-23T08:26:51.401Z,22.66
2018-07-23T08:29:20.171Z,22.81
2018-07-23T08:31:48.935Z,22.89
2018-07-23T08:34:25.060Z,23.01
2018-07-23T08:36:53.943Z,23.13
2018-07-23T08:39:22.623Z,23.16
2018-07-23T08:41:51.399Z,23.25
2018-07-23T08:44:20.080Z,23.43
2018-07-23T08:46:48.774Z,23.55
2018-07-23T08:49:17.498Z,23.69
2018-07-23T08:51:46.365Z,23.69
2018-07-23T08:57:05.284Z,23.74
2018-07-23T08:59:34.151Z,23.84
2018-07-23T09:02:12.480Z,23.76
2018-07-23T09:04:50.467Z,23.70
2018-07-23T09:07:19.246Z,23.66
2018-07-23T09:09:47.842Z,23.61
2018-07-23T09:12:16.627Z,23.67
2018-07-23T09:14:46.368Z,23.80
2018-07-23T09:17:14.990Z,23.83
2018-07-23T09:19:43.710Z,23.78
2018-07-23T09:22:12.551Z,23.93
2018-07-23T09:24:42.480Z,24.06
2018-07-23T09:27:11.207Z,24.22
2018-07-23T09:29:39.956Z,24.24
2018-07-23T09:32:09.615Z,24.23
2018-07-23T09:34:41.367Z,24.30
2018-07-23T09:37:10.066Z,24.44
2018-07-23T09:39:38.874Z,24.53
2018-07-23T09:42:07.616Z,24.62
2018-07-23T09:44:36.475Z,24.67
2018-07-23T09:47:05.186Z,24.68
2018-07-23T09:49:33.839Z,24.88
2018-07-23T09:52:02.536Z,24.88
2018-07-23T09:54:46.495Z,24.94
2018-07-23T09:57:15.356Z,25.02
2018-07-23T09:59:44.144Z,25.19
2018-07-23T10:02:12.923Z,25.22
2018-07-23T10:04:41.618Z,25.26
2018-07-23T10:07:10.360Z,25.39
2018-07-23T10:09:39.872Z,25.40
2018-07-23T10:12:08.534Z,25.29
2018-07-23T10:14:41.789Z,25.38
2018-07-23T10:17:10.520Z,25.51
2018-07-23T10:19:39.281Z,25.52
2018-07-23T10:22:31.472Z,25.61
2018-07-23T10:25:34.571Z,25.66
2018-07-23T10:31:17.910Z,26.28
2018-07-23T10:33:46.597Z,26.23
2018-07-23T10:36:15.191Z,26.13
2018-07-23T10:38:43.964Z,26.13
2018-07-23T10:41:18.292Z,26.08
2018-07-23T10:44:16.023Z,26.14
2018-07-23T10:46:44.702Z,26.16
2018-07-23T10:49:13.398Z,26.29
2018-07-23T10:51:42.151Z,26.37
2018-07-23T10:54:22.024Z,26.61
2018-07-23T10:56:51.948Z,26.68
2018-07-23T10:59:20.605Z,26.66
2018-07-23T11:01:49.218Z,26.87
2018-07-23T11:04:17.970Z,27.04
2018-07-23T11:06:46.774Z,27.23
2018-07-23T11:09:15.547Z,27.26
2018-07-23T11:11:44.253Z,27.47
2018-07-23T11:14:12.883Z,27.59
2018-07-23T11:16:42.026Z,27.75
2018-07-23T11:19:11.559Z,27.95
2018-07-23T11:21:40.292Z,28.23
2018-07-23T11:24:08.951Z,28.32
2018-07-23T11:26:39.710Z,28.50
2018-07-23T11:29:08.371Z,28.92
2018-07-23T11:31:37.020Z,28.88
2018-07-23T11:34:06.075Z,28.67
2018-07-23T11:36:36.772Z,28.26
2018-07-23T11:39:08.597Z,27.87
2018-07-23T11:41:37.421Z,27.69
2018-07-23T11:44:06.272Z,27.78
2018-07-23T11:46:38.671Z,28.16
2018-07-23T11:49:07.377Z,28.23
2018-07-23T11:51:36.067Z,28.33
2018-07-23T11:54:04.869Z,28.59
2018-07-23T11:56:33.633Z,29.05
2018-07-23T11:59:02.396Z,29.29
2018-07-23T12:01:31.241Z,29.62
2018-07-23T12:04:00.100Z,29.92
2018-07-23T12:06:28.830Z,30.31
2018-07-23T12:08:57.545Z,30.63
2018-07-23T12:11:26.135Z,30.93
2018-07-23T12:13:54.829Z,30.78
2018-07-23T12:16:23.467Z,30.84
2018-07-23T12:18:52.103Z,31.10
2018-07-23T12:21:20.890Z,31.55
2018-07-23T12:23:49.593Z,31.85
2018-07-23T12:26:18.335Z,31.58
2018-07-23T12:28:47.127Z,30.96
2018-07-23T12:31:15.798Z,30.34
2018-07-23T12:33:44.862Z,29.87
2018-07-23T12:36:13.504Z,29.50
2018-07-23T12:38:42.231Z,29.50
2018-07-23T12:41:11.001Z,29.32
2018-07-23T12:43:39.761Z,29.22
2018-07-23T12:46:08.341Z,29.30
2018-07-23T12:48:37.099Z,30.73
2018-07-23T12:51:05.839Z,32.85
2018-07-23T12:53:34.624Z,35.20
2018-07-23T12:56:03.255Z,37.86
2018-07-23T12:58:31.929Z,39.34
2018-07-23T13:01:00.600Z,40.09
2018-07-23T13:03:30.204Z,41.09
2018-07-23T13:05:58.843Z,41.66
2018-07-23T13:08:27.552Z,42.36
2018-07-23T13:10:56.256Z,41.95
2018-07-23T13:13:24.961Z,42.36
2018-07-23T13:15:53.743Z,42.23
2018-07-23T13:18:22.495Z,42.54
2018-07-23T13:20:51.150Z,42.92
2018-07-23T13:23:19.913Z,43.69
2018-07-23T13:25:48.707Z,42.15
2018-07-23T13:28:17.404Z,41.60
2018-07-23T13:30:46.193Z,41.40
2018-07-23T13:33:14.930Z,40.40
2018-07-23T13:35:43.753Z,41.01
2018-07-23T13:38:12.519Z,41.05
2018-07-23T13:40:41.473Z,41.85
2018-07-23T13:43:10.689Z,42.76
2018-07-23T13:45:39.502Z,44.22
2018-07-23T13:48:08.398Z,45.60
2018-07-23T13:50:37.105Z,46.41
2018-07-23T13:53:05.662Z,46.84
2018-07-23T13:55:34.315Z,47.48
2018-07-23T13:58:02.939Z,47.13
2018-07-23T14:00:31.533Z,44.28
2018-07-23T14:03:00.300Z,43.27
2018-07-23T14:05:28.999Z,42.05
2018-07-23T14:07:57.730Z,43.21
2018-07-23T14:10:26.328Z,45.49
2018-07-23T14:12:54.920Z,47.16
2018-07-23T14:15:23.773Z,48.43
2018-07-23T14:17:52.492Z,48.95
2018-07-23T14:20:21.236Z,49.30
2018-07-23T14:22:49.933Z,49.25
2018-07-23T14:25:18.770Z,48.54
2018-07-23T14:27:47.535Z,48.43
2018-07-23T14:30:16.243Z,47.21
2018-07-23T14:32:44.996Z,46.17
2018-07-23T14:35:13.733Z,45.09
2018-07-23T14:37:42.459Z,45.23
2018-07-23T14:40:11.205Z,45.07
2018-07-23T14:42:40.084Z,44.40
2018-07-23T14:45:08.869Z,43.87
2018-07-23T14:47:37.628Z,43.31
2018-07-23T14:50:06.267Z,42.05
2018-07-23T14:52:35.049Z,42.95
2018-07-23T14:55:03.746Z,43.25
2018-07-23T14:57:32.348Z,43.95
2018-07-23T15:00:01.194Z,45.36
2018-07-23T15:02:29.880Z,44.83
2018-07-23T15:04:58.608Z,45.08
2018-07-23T15:07:27.295Z,45.39
2018-07-23T15:09:56.021Z,44.71
2018-07-23T15:12:24.689Z,45.10
2018-07-23T15:14:53.455Z,45.17
2018-07-23T15:17:22.153Z,45.87
2018-07-23T15:19:50.797Z,46.74
2018-07-23T15:22:19.614Z,46.76
2018-07-23T15:24:48.665Z,47.43
2018-07-23T15:27:17.449Z,46.88
2018-07-23T15:29:46.252Z,46.25
2018-07-23T15:32:14.999Z,44.84
2018-07-23T15:34:43.693Z,42.98
2018-07-23T15:37:12.392Z,41.91
2018-07-23T15:39:41.061Z,40.77
2018-07-23T15:42:09.830Z,41.79
2018-07-23T15:44:39.015Z,43.62
2018-07-23T15:47:07.845Z,44.55
2018-07-23T15:49:36.470Z,45.65
2018-07-23T15:52:05.232Z,46.33
2018-07-23T15:54:33.901Z,46.45
2018-07-23T15:57:02.630Z,44.62
2018-07-23T15:59:31.224Z,43.91
2018-07-23T16:01:59.846Z,44.26
2018-07-23T16:04:28.473Z,43.34
2018-07-23T16:06:57.185Z,43.15
2018-07-23T16:09:25.994Z,44.30
2018-07-23T16:11:54.685Z,45.48
2018-07-23T16:14:23.359Z,46.81
2018-07-23T16:16:52.148Z,47.72
2018-07-23T16:19:20.746Z,47.72
2018-07-23T16:21:49.469Z,47.82
2018-07-23T16:24:18.173Z,48.05
2018-07-23T16:26:46.830Z,48.05
2018-07-23T16:29:15.478Z,48.11
2018-07-23T16:31:44.305Z,47.86
2018-07-23T16:34:12.971Z,46.99
2018-07-23T16:36:41.926Z,46.46
2018-07-23T16:39:12.544Z,46.37
2018-07-23T16:41:41.177Z,46.20
2018-07-23T16:44:09.944Z,45.93
2018-07-23T16:46:38.723Z,45.81
2018-07-23T16:49:07.329Z,45.91
2018-07-23T16:51:35.970Z,46.04
2018-07-23T16:54:04.674Z,45.62
2018-07-23T16:56:33.404Z,45.42
2018-07-23T16:59:03.089Z,45.08
2018-07-23T17:01:31.825Z,44.97
2018-07-23T17:04:00.665Z,45.06
2018-07-23T17:06:29.418Z,44.86
2018-07-23T17:08:58.232Z,44.09
2018-07-23T17:11:26.926Z,42.92
2018-07-23T17:13:56.770Z,42.01
2018-07-23T17:16:25.657Z,42.00
2018-07-23T17:18:54.362Z,42.47
2018-07-23T17:21:23.100Z,42.17
2018-07-23T17:23:51.809Z,41.71
2018-07-23T17:26:21.016Z,41.41
2018-07-23T17:28:49.741Z,40.90
2018-07-23T17:31:18.512Z,39.93
2018-07-23T17:33:47.273Z,39.22
2018-07-23T17:36:16.058Z,38.91
2018-07-23T17:38:44.754Z,39.11
2018-07-23T17:41:13.458Z,39.33
2018-07-23T17:43:42.243Z,39.49
2018-07-23T17:46:11.020Z,39.09
2018-07-23T17:48:39.796Z,38.86
2018-07-23T17:51:08.503Z,38.69
2018-07-23T17:53:37.160Z,38.49
2018-07-23T17:56:05.894Z,38.22
2018-07-23T17:58:34.486Z,37.85
2018-07-23T18:01:03.195Z,37.25
2018-07-23T18:03:31.926Z,36.77
2018-07-23T18:06:01.067Z,36.47
2018-07-23T18:08:29.740Z,36.18
2018-07-23T18:10:58.444Z,35.79
2018-07-23T18:13:27.228Z,35.21
2018-07-23T18:15:56.059Z,34.57
2018-07-23T18:18:25.056Z,33.95
2018-07-23T18:20:54.308Z,33.44
2018-07-23T18:23:23.088Z,32.87
2018-07-23T18:25:51.970Z,32.44
2018-07-23T18:28:22.808Z,32.01
2018-07-23T18:30:51.518Z,31.62
2018-07-23T18:33:20.348Z,31.35
2018-07-23T18:35:49.128Z,30.98
2018-07-23T18:38:17.716Z,30.70
2018-07-23T18:40:46.303Z,30.51
2018-07-23T18:43:15.029Z,30.26
2018-07-23T18:45:43.670Z,30.00
2018-07-23T18:48:28.243Z,29.77
2018-07-23T18:50:57.025Z,29.51
2018-07-23T18:53:25.921Z,29.14
2018-07-23T18:55:54.555Z,28.75
2018-07-23T18:58:23.192Z,28.43
2018-07-23T19:00:51.938Z,28.14
2018-07-23T19:03:20.659Z,27.87
2018-07-23T19:05:49.391Z,27.61
2018-07-23T19:08:18.095Z,27.28
2018-07-23T19:10:46.855Z,27.00
2018-07-23T19:13:15.573Z,26.68
2018-07-23T19:15:44.226Z,26.34
2018-07-23T19:18:12.979Z,25.97
2018-07-23T19:20:41.687Z,25.47
2018-07-23T19:23:10.297Z,24.99
2018-07-23T19:25:39.004Z,24.52
2018-07-23T19:28:07.666Z,24.10
2018-07-23T19:30:36.346Z,23.75
2018-07-23T19:33:05.183Z,23.43
2018-07-23T19:35:33.857Z,23.12
2018-07-23T19:38:02.513Z,22.92
2018-07-23T19:40:31.121Z,22.72
2018-07-23T19:42:59.939Z,22.52
2018-07-23T19:45:28.652Z,22.37
2018-07-23T19:47:57.406Z,22.18
2018-07-23T19:50:26.156Z,22.07
2018-07-23T19:52:54.924Z,21.93
2018-07-23T19:55:23.575Z,21.77
2018-07-23T19:57:52.348Z,21.60
2018-07-23T20:00:20.993Z,21.51
2018-07-23T20:02:49.701Z,21.44
2018-07-23T20:05:18.449Z,21.38
2018-07-23T20:07:47.226Z,21.29
2018-07-23T20:10:15.939Z,21.19
2018-07-23T20:12:44.639Z,21.07
2018-07-23T20:15:13.221Z,21.04
2018-07-23T20:17:42.026Z,20.97
2018-07-23T20:20:10.687Z,20.87
2018-07-23T20:22:39.709Z,20.78
2018-07-23T20:25:08.440Z,20.68
2018-07-23T20:27:38.198Z,20.59
2018-07-23T20:30:06.975Z,20.51
2018-07-23T20:32:35.614Z,20.48
2018-07-23T20:35:04.285Z,20.42
2018-07-23T20:37:32.985Z,20.35
2018-07-23T20:40:01.606Z,20.28
2018-07-23T20:42:30.267Z,20.20
2018-07-23T20:44:58.947Z,20.13
2018-07-23T20:47:27.638Z,20.11
2018-07-23T20:49:56.499Z,20.08
2018-07-23T20:52:25.185Z,20.02
2018-07-23T20:54:53.878Z,19.99
2018-07-23T20:57:22.611Z,19.96
2018-07-23T20:59:51.261Z,19.88
2018-07-23T21:02:20.006Z,19.89
2018-07-23T21:04:48.830Z,20.07
2018-07-23T21:07:17.590Z,20.08
2018-07-23T21:09:46.720Z,20.01
2018-07-23T21:12:15.937Z,19.89
2018-07-23T21:14:44.607Z,19.78
2018-07-23T21:17:13.321Z,19.71
2018-07-23T21:19:42.266Z,19.75
2018-07-23T21:22:11.125Z,19.79
2018-07-23T21:24:39.674Z,19.82
2018-07-23T21:27:08.412Z,19.69
2018-07-23T21:29:37.037Z,19.63
2018-07-23T21:32:05.636Z,19.50
2018-07-23T21:34:34.321Z,19.36
2018-07-23T21:37:03.085Z,19.24
2018-07-23T21:39:31.812Z,19.17
2018-07-23T21:42:00.563Z,19.08
2018-07-23T21:44:29.089Z,19.00
2018-07-23T21:46:58.250Z,18.96
2018-07-23T21:49:26.986Z,18.92
2018-07-23T21:51:55.723Z,18.87
2018-07-23T21:54:24.420Z,18.88
2018-07-23T21:56:53.145Z,18.88
2018-07-23T21:59:22.735Z,18.86
2018-07-23T22:01:51.602Z,18.84
2018-07-23T22:04:20.439Z,18.82
2018-07-23T22:06:48.976Z,18.78
2018-07-23T22:09:17.662Z,18.75
2018-07-23T22:11:46.451Z,18.79
2018-07-23T22:14:15.020Z,18.81
2018-07-23T22:16:43.637Z,18.77
2018-07-23T22:19:12.465Z,18.77
2018-07-23T22:21:41.128Z,18.77
2018-07-23T22:24:09.769Z,18.75
2018-07-23T22:26:38.471Z,18.73
2018-07-23T22:29:07.095Z,18.69
2018-07-23T22:31:35.755Z,18.64
2018-07-23T22:34:04.442Z,18.59
2018-07-23T22:36:33.170Z,18.57
2018-07-23T22:39:01.813Z,18.59
2018-07-23T22:41:30.502Z,18.61
2018-07-23T22:43:59.191Z,18.60
2018-07-23T22:46:27.910Z,18.62
2018-07-23T22:48:59.839Z,18.64
2018-07-23T22:51:28.479Z,18.66
2018-07-23T22:53:57.201Z,18.64
2018-07-23T22:56:26.392Z,18.83
2018-07-23T22:58:55.090Z,19.31
2018-07-23T23:01:23.752Z,19.52
2018-07-23T23:03:52.446Z,19.42
2018-07-23T23:06:21.120Z,19.19
2018-07-23T23:08:49.769Z,19.00
2018-07-23T23:11:18.389Z,18.83
2018-07-23T23:13:47.282Z,18.65
2018-07-23T23:16:15.917Z,18.53
2018-07-23T23:18:44.593Z,18.37
2018-07-23T23:21:13.162Z,18.35
2018-07-23T23:23:41.912Z,18.43
2018-07-23T23:26:10.565Z,18.43
2018-07-23T23:28:39.122Z,18.37
2018-07-23T23:31:07.785Z,18.29
2018-07-23T23:33:36.415Z,18.18
2018-07-23T23:36:05.275Z,18.05
2018-07-23T23:38:33.930Z,17.94
2018-07-23T23:41:03.688Z,17.89
2018-07-23T23:43:32.272Z,17.84
2018-07-23T23:46:01.162Z,17.83
2018-07-23T23:48:29.819Z,17.88
2018-07-23T23:50:58.431Z,17.86
2018-07-23T23:53:27.150Z,17.80
2018-07-23T23:55:55.856Z,17.77
2018-07-23T23:58:24.565Z,17.75
